sensor_id;sensor_type;location;lat;lon;timestamp;P1;durP1;ratioP1;P2;durP2;ratioP2
66371;SDS011;53168;51.146;17.120;2023-06-24T00:02:12;25.18;;;24.79;;
66371;SDS011;53168;51.146;17.120;2023-06-24T00:04:45;25.54;;;25.13;;
66371;SDS011;53168;51.146;17.120;2023-06-24T00:07:19;25.11;;;24.62;;
66371;SDS011;53168;51.146;17.120;2023-06-24T00:09:53;25.00;;;24.50;;
66371;SDS011;53168;51.146;17.120;2023-06-24T00:12:26;23.81;;;23.40;;
66371;SDS011;53168;51.146;17.120;2023-06-24T00:15:02;24.50;;;23.93;;
66371;SDS011;53168;51.146;17.120;2023-06-24T00:17:38;25.75;;;25.14;;
66371;SDS011;53168;51.146;17.120;2023-06-24T00:20:12;22.31;;;22.09;;
66371;SDS011;53168;51.146;17.120;2023-06-24T00:22:47;22.43;;;22.13;;
66371;SDS011;53168;51.146;17.120;2023-06-24T00:25:21;22.26;;;21.90;;
66371;SDS011;53168;51.146;17.120;2023-06-24T00:27:54;22.09;;;21.84;;
66371;SDS011;53168;51.146;17.120;2023-06-24T00:30:28;22.53;;;21.96;;
66371;SDS011;53168;51.146;17.120;2023-06-24T00:33:02;20.52;;;20.26;;
66371;SDS011;53168;51.146;17.120;2023-06-24T00:35:38;20.61;;;20.42;;
66371;SDS011;53168;51.146;17.120;2023-06-24T00:38:12;21.96;;;21.66;;
66371;SDS011;53168;51.146;17.120;2023-06-24T00:40:46;24.10;;;23.50;;
66371;SDS011;53168;51.146;17.120;2023-06-24T00:43:20;22.74;;;22.14;;
66371;SDS011;53168;51.146;17.120;2023-06-24T00:46:24;23.89;;;23.45;;
66371;SDS011;53168;51.146;17.120;2023-06-24T00:49:02;23.35;;;23.03;;
66371;SDS011;53168;51.146;17.120;2023-06-24T00:51:36;23.23;;;22.67;;
66371;SDS011;53168;51.146;17.120;2023-06-24T00:54:19;23.57;;;23.19;;
66371;SDS011;53168;51.146;17.120;2023-06-24T00:57:00;22.97;;;22.48;;
66371;SDS011;53168;51.146;17.120;2023-06-24T00:59:36;21.27;;;20.86;;
66371;SDS011;53168;51.146;17.120;2023-06-24T01:02:33;17.91;;;17.78;;
66371;SDS011;53168;51.146;17.120;2023-06-24T01:05:08;18.43;;;18.23;;
66371;SDS011;53168;51.146;17.120;2023-06-24T01:07:43;17.67;;;17.48;;
66371;SDS011;53168;51.146;17.120;2023-06-24T01:10:24;18.07;;;17.98;;
66371;SDS011;53168;51.146;17.120;2023-06-24T01:12:58;18.03;;;18.01;;
66371;SDS011;53168;51.146;17.120;2023-06-24T01:15:31;18.81;;;18.63;;
66371;SDS011;53168;51.146;17.120;2023-06-24T01:21:01;18.96;;;18.71;;
66371;SDS011;53168;51.146;17.120;2023-06-24T01:23:58;18.33;;;18.17;;
66371;SDS011;53168;51.146;17.120;2023-06-24T01:27:03;16.77;;;16.65;;
66371;SDS011;53168;51.146;17.120;2023-06-24T01:30:20;14.69;;;14.69;;
66371;SDS011;53168;51.146;17.120;2023-06-24T01:36:57;12.95;;;12.91;;
66371;SDS011;53168;51.146;17.120;2023-06-24T01:39:46;11.80;;;11.78;;
66371;SDS011;53168;51.146;17.120;2023-06-24T01:42:29;11.28;;;11.14;;
66371;SDS011;53168;51.146;17.120;2023-06-24T01:45:06;11.45;;;11.44;;
66371;SDS011;53168;51.146;17.120;2023-06-24T01:47:44;11.15;;;11.15;;
66371;SDS011;53168;51.146;17.120;2023-06-24T01:50:28;11.13;;;11.11;;
66371;SDS011;53168;51.146;17.120;2023-06-24T01:53:09;10.84;;;10.69;;
66371;SDS011;53168;51.146;17.120;2023-06-24T01:55:46;10.98;;;10.84;;
66371;SDS011;53168;51.146;17.120;2023-06-24T01:58:23;10.61;;;10.41;;
66371;SDS011;53168;51.146;17.120;2023-06-24T02:00:58;11.15;;;10.99;;
66371;SDS011;53168;51.146;17.120;2023-06-24T02:03:34;10.11;;;10.02;;
66371;SDS011;53168;51.146;17.120;2023-06-24T02:06:12;10.31;;;10.24;;
66371;SDS011;53168;51.146;17.120;2023-06-24T02:08:49;10.57;;;10.50;;
66371;SDS011;53168;51.146;17.120;2023-06-24T02:11:25;10.65;;;10.48;;
66371;SDS011;53168;51.146;17.120;2023-06-24T02:14:04;9.81;;;9.72;;
66371;SDS011;53168;51.146;17.120;2023-06-24T02:16:41;9.77;;;9.72;;
66371;SDS011;53168;51.146;17.120;2023-06-24T02:19:17;9.47;;;9.41;;
66371;SDS011;53168;51.146;17.120;2023-06-24T02:21:54;10.14;;;10.07;;
66371;SDS011;53168;51.146;17.120;2023-06-24T02:24:31;9.53;;;9.45;;
66371;SDS011;53168;51.146;17.120;2023-06-24T02:27:06;9.72;;;9.62;;
66371;SDS011;53168;51.146;17.120;2023-06-24T02:29:44;9.54;;;9.47;;
66371;SDS011;53168;51.146;17.120;2023-06-24T02:32:20;8.70;;;8.67;;
66371;SDS011;53168;51.146;17.120;2023-06-24T02:34:54;9.74;;;9.62;;
66371;SDS011;53168;51.146;17.120;2023-06-24T02:37:30;9.29;;;9.16;;
66371;SDS011;53168;51.146;17.120;2023-06-24T02:40:05;9.35;;;9.26;;
66371;SDS011;53168;51.146;17.120;2023-06-24T02:42:41;9.24;;;9.17;;
66371;SDS011;53168;51.146;17.120;2023-06-24T02:45:15;9.18;;;9.02;;
66371;SDS011;53168;51.146;17.120;2023-06-24T02:47:49;9.30;;;9.19;;
66371;SDS011;53168;51.146;17.120;2023-06-24T02:50:25;8.97;;;8.85;;
66371;SDS011;53168;51.146;17.120;2023-06-24T02:53:02;9.13;;;8.96;;
66371;SDS011;53168;51.146;17.120;2023-06-24T02:55:37;8.85;;;8.69;;
66371;SDS011;53168;51.146;17.120;2023-06-24T02:58:15;9.03;;;8.89;;
66371;SDS011;53168;51.146;17.120;2023-06-24T03:00:56;8.52;;;8.40;;
66371;SDS011;53168;51.146;17.120;2023-06-24T03:03:45;8.74;;;8.63;;
66371;SDS011;53168;51.146;17.120;2023-06-24T03:06:22;9.18;;;8.88;;
66371;SDS011;53168;51.146;17.120;2023-06-24T03:09:00;9.45;;;9.07;;
66371;SDS011;53168;51.146;17.120;2023-06-24T03:11:41;9.25;;;8.97;;
66371;SDS011;53168;51.146;17.120;2023-06-24T03:14:20;9.17;;;8.98;;
66371;SDS011;53168;51.146;17.120;2023-06-24T03:16:54;8.36;;;8.21;;
66371;SDS011;53168;51.146;17.120;2023-06-24T03:19:29;9.19;;;8.97;;
66371;SDS011;53168;51.146;17.120;2023-06-24T03:22:04;9.04;;;8.80;;
66371;SDS011;53168;51.146;17.120;2023-06-24T03:24:38;9.11;;;8.92;;
66371;SDS011;53168;51.146;17.120;2023-06-24T03:27:12;9.42;;;9.24;;
66371;SDS011;53168;51.146;17.120;2023-06-24T03:29:46;9.15;;;8.97;;
66371;SDS011;53168;51.146;17.120;2023-06-24T03:32:20;8.62;;;8.54;;
66371;SDS011;53168;51.146;17.120;2023-06-24T03:34:53;9.58;;;9.45;;
66371;SDS011;53168;51.146;17.120;2023-06-24T03:37:27;9.69;;;9.42;;
66371;SDS011;53168;51.146;17.120;2023-06-24T03:40:00;9.79;;;9.60;;
66371;SDS011;53168;51.146;17.120;2023-06-24T03:42:39;9.56;;;9.38;;
66371;SDS011;53168;51.146;17.120;2023-06-24T03:45:12;9.16;;;9.07;;
66371;SDS011;53168;51.146;17.120;2023-06-24T03:47:46;9.33;;;9.17;;
66371;SDS011;53168;51.146;17.120;2023-06-24T03:50:20;9.23;;;8.92;;
66371;SDS011;53168;51.146;17.120;2023-06-24T03:52:54;9.12;;;8.80;;
66371;SDS011;53168;51.146;17.120;2023-06-24T03:55:31;9.27;;;9.09;;
66371;SDS011;53168;51.146;17.120;2023-06-24T03:58:06;9.07;;;8.80;;
66371;SDS011;53168;51.146;17.120;2023-06-24T04:00:40;9.34;;;9.07;;
66371;SDS011;53168;51.146;17.120;2023-06-24T04:03:14;9.27;;;9.04;;
66371;SDS011;53168;51.146;17.120;2023-06-24T04:05:48;9.46;;;9.31;;
66371;SDS011;53168;51.146;17.120;2023-06-24T04:08:22;9.32;;;9.16;;
66371;SDS011;53168;51.146;17.120;2023-06-24T04:10:58;9.09;;;8.97;;
66371;SDS011;53168;51.146;17.120;2023-06-24T04:13:32;8.85;;;8.72;;
66371;SDS011;53168;51.146;17.120;2023-06-24T04:16:06;8.71;;;8.55;;
66371;SDS011;53168;51.146;17.120;2023-06-24T04:18:41;9.14;;;9.00;;
66371;SDS011;53168;51.146;17.120;2023-06-24T04:21:14;8.64;;;8.57;;
66371;SDS011;53168;51.146;17.120;2023-06-24T04:23:48;8.54;;;8.50;;
66371;SDS011;53168;51.146;17.120;2023-06-24T04:26:22;8.79;;;8.67;;
66371;SDS011;53168;51.146;17.120;2023-06-24T04:28:56;8.18;;;8.04;;
66371;SDS011;53168;51.146;17.120;2023-06-24T04:31:31;8.52;;;8.29;;
66371;SDS011;53168;51.146;17.120;2023-06-24T04:34:06;8.06;;;7.92;;
66371;SDS011;53168;51.146;17.120;2023-06-24T04:36:39;8.11;;;8.07;;
66371;SDS011;53168;51.146;17.120;2023-06-24T04:39:13;7.51;;;7.41;;
66371;SDS011;53168;51.146;17.120;2023-06-24T04:41:49;7.26;;;7.11;;
66371;SDS011;53168;51.146;17.120;2023-06-24T04:44:23;7.24;;;7.05;;
66371;SDS011;53168;51.146;17.120;2023-06-24T04:46:57;7.33;;;7.21;;
66371;SDS011;53168;51.146;17.120;2023-06-24T04:49:32;7.13;;;7.03;;
66371;SDS011;53168;51.146;17.120;2023-06-24T04:52:05;6.74;;;6.65;;
66371;SDS011;53168;51.146;17.120;2023-06-24T04:54:40;6.82;;;6.70;;
66371;SDS011;53168;51.146;17.120;2023-06-24T04:57:24;6.77;;;6.68;;
66371;SDS011;53168;51.146;17.120;2023-06-24T04:59:59;7.05;;;6.93;;
66371;SDS011;53168;51.146;17.120;2023-06-24T05:02:34;6.39;;;6.28;;
66371;SDS011;53168;51.146;17.120;2023-06-24T05:05:08;6.27;;;6.17;;
66371;SDS011;53168;51.146;17.120;2023-06-24T05:07:42;6.23;;;6.12;;
66371;SDS011;53168;51.146;17.120;2023-06-24T05:10:16;5.92;;;5.79;;
66371;SDS011;53168;51.146;17.120;2023-06-24T05:12:49;6.40;;;6.30;;
66371;SDS011;53168;51.146;17.120;2023-06-24T05:15:26;6.05;;;5.95;;
66371;SDS011;53168;51.146;17.120;2023-06-24T05:18:00;6.05;;;5.96;;
66371;SDS011;53168;51.146;17.120;2023-06-24T05:20:34;6.35;;;6.25;;
66371;SDS011;53168;51.146;17.120;2023-06-24T05:23:08;6.42;;;6.29;;
66371;SDS011;53168;51.146;17.120;2023-06-24T05:25:41;6.26;;;6.20;;
66371;SDS011;53168;51.146;17.120;2023-06-24T05:28:15;5.34;;;5.31;;
66371;SDS011;53168;51.146;17.120;2023-06-24T05:30:49;5.45;;;5.40;;
66371;SDS011;53168;51.146;17.120;2023-06-24T05:33:32;5.60;;;5.54;;
66371;SDS011;53168;51.146;17.120;2023-06-24T05:36:06;5.72;;;5.63;;
66371;SDS011;53168;51.146;17.120;2023-06-24T05:38:40;4.91;;;4.83;;
66371;SDS011;53168;51.146;17.120;2023-06-24T05:41:17;5.08;;;5.00;;
66371;SDS011;53168;51.146;17.120;2023-06-24T05:44:00;4.94;;;4.86;;
66371;SDS011;53168;51.146;17.120;2023-06-24T05:46:40;4.91;;;4.84;;
66371;SDS011;53168;51.146;17.120;2023-06-24T05:49:15;4.53;;;4.49;;
66371;SDS011;53168;51.146;17.120;2023-06-24T05:51:49;4.49;;;4.41;;
66371;SDS011;53168;51.146;17.120;2023-06-24T05:54:23;4.75;;;4.64;;
66371;SDS011;53168;51.146;17.120;2023-06-24T05:56:57;4.62;;;4.50;;
66371;SDS011;53168;51.146;17.120;2023-06-24T05:59:35;4.68;;;4.57;;
66371;SDS011;53168;51.146;17.120;2023-06-24T06:02:09;4.79;;;4.75;;
66371;SDS011;53168;51.146;17.120;2023-06-24T06:04:43;4.57;;;4.52;;
66371;SDS011;53168;51.146;17.120;2023-06-24T06:07:17;5.12;;;5.05;;
66371;SDS011;53168;51.146;17.120;2023-06-24T06:09:51;4.58;;;4.52;;
66371;SDS011;53168;51.146;17.120;2023-06-24T06:12:25;4.93;;;4.83;;
66371;SDS011;53168;51.146;17.120;2023-06-24T06:14:59;5.02;;;4.89;;
66371;SDS011;53168;51.146;17.120;2023-06-24T06:17:34;5.10;;;4.96;;
66371;SDS011;53168;51.146;17.120;2023-06-24T06:20:08;5.37;;;5.24;;
66371;SDS011;53168;51.146;17.120;2023-06-24T06:22:43;5.06;;;4.92;;
66371;SDS011;53168;51.146;17.120;2023-06-24T06:25:19;5.67;;;5.51;;
66371;SDS011;53168;51.146;17.120;2023-06-24T06:27:53;5.16;;;5.09;;
66371;SDS011;53168;51.146;17.120;2023-06-24T06:30:28;5.30;;;5.21;;
66371;SDS011;53168;51.146;17.120;2023-06-24T06:33:02;7.36;;;7.17;;
66371;SDS011;53168;51.146;17.120;2023-06-24T06:35:36;6.55;;;6.39;;
66371;SDS011;53168;51.146;17.120;2023-06-24T06:38:10;6.96;;;6.79;;
66371;SDS011;53168;51.146;17.120;2023-06-24T06:41:02;7.26;;;7.06;;
66371;SDS011;53168;51.146;17.120;2023-06-24T06:43:39;7.35;;;7.18;;
66371;SDS011;53168;51.146;17.120;2023-06-24T06:46:13;7.56;;;7.36;;
66371;SDS011;53168;51.146;17.120;2023-06-24T06:48:46;7.04;;;6.86;;
66371;SDS011;53168;51.146;17.120;2023-06-24T06:51:23;8.56;;;8.16;;
66371;SDS011;53168;51.146;17.120;2023-06-24T06:53:57;7.00;;;6.76;;
66371;SDS011;53168;51.146;17.120;2023-06-24T06:56:32;7.67;;;7.55;;
66371;SDS011;53168;51.146;17.120;2023-06-24T06:59:05;7.68;;;7.59;;
66371;SDS011;53168;51.146;17.120;2023-06-24T07:01:39;7.68;;;7.59;;
66371;SDS011;53168;51.146;17.120;2023-06-24T07:04:13;8.55;;;8.32;;
66371;SDS011;53168;51.146;17.120;2023-06-24T07:06:48;7.99;;;7.80;;
66371;SDS011;53168;51.146;17.120;2023-06-24T07:09:21;7.42;;;7.24;;
66371;SDS011;53168;51.146;17.120;2023-06-24T07:11:55;7.71;;;7.58;;
66371;SDS011;53168;51.146;17.120;2023-06-24T07:14:29;8.02;;;7.97;;
66371;SDS011;53168;51.146;17.120;2023-06-24T07:17:03;8.06;;;8.03;;
66371;SDS011;53168;51.146;17.120;2023-06-24T07:19:38;7.96;;;7.85;;
66371;SDS011;53168;51.146;17.120;2023-06-24T07:22:18;8.22;;;8.08;;
66371;SDS011;53168;51.146;17.120;2023-06-24T07:24:52;8.34;;;8.21;;
66371;SDS011;53168;51.146;17.120;2023-06-24T07:27:25;7.97;;;7.91;;
66371;SDS011;53168;51.146;17.120;2023-06-24T07:30:00;8.02;;;7.96;;
66371;SDS011;53168;51.146;17.120;2023-06-24T07:32:37;8.43;;;8.36;;
66371;SDS011;53168;51.146;17.120;2023-06-24T07:35:12;7.70;;;7.64;;
66371;SDS011;53168;51.146;17.120;2023-06-24T07:37:51;7.48;;;7.46;;
66371;SDS011;53168;51.146;17.120;2023-06-24T07:40:25;8.11;;;7.99;;
66371;SDS011;53168;51.146;17.120;2023-06-24T07:42:59;7.11;;;6.95;;
66371;SDS011;53168;51.146;17.120;2023-06-24T07:45:35;8.20;;;8.10;;
66371;SDS011;53168;51.146;17.120;2023-06-24T07:48:08;8.05;;;7.91;;
66371;SDS011;53168;51.146;17.120;2023-06-24T07:50:48;7.43;;;7.41;;
66371;SDS011;53168;51.146;17.120;2023-06-24T07:53:22;7.80;;;7.74;;
66371;SDS011;53168;51.146;17.120;2023-06-24T07:55:56;9.36;;;9.28;;
66371;SDS011;53168;51.146;17.120;2023-06-24T07:58:29;8.20;;;8.12;;
66371;SDS011;53168;51.146;17.120;2023-06-24T08:01:04;8.76;;;8.65;;
66371;SDS011;53168;51.146;17.120;2023-06-24T08:03:39;8.49;;;8.45;;
66371;SDS011;53168;51.146;17.120;2023-06-24T08:06:13;8.91;;;8.85;;
66371;SDS011;53168;51.146;17.120;2023-06-24T08:08:47;8.53;;;8.37;;
66371;SDS011;53168;51.146;17.120;2023-06-24T08:11:21;7.90;;;7.80;;
66371;SDS011;53168;51.146;17.120;2023-06-24T08:13:55;8.70;;;8.61;;
66371;SDS011;53168;51.146;17.120;2023-06-24T08:16:28;8.23;;;8.12;;
66371;SDS011;53168;51.146;17.120;2023-06-24T08:19:04;7.74;;;7.58;;
66371;SDS011;53168;51.146;17.120;2023-06-24T08:25:35;8.33;;;8.27;;
66371;SDS011;53168;51.146;17.120;2023-06-24T08:28:48;8.68;;;8.65;;
66371;SDS011;53168;51.146;17.120;2023-06-24T08:31:25;8.05;;;7.99;;
66371;SDS011;53168;51.146;17.120;2023-06-24T08:34:32;9.36;;;9.28;;
66371;SDS011;53168;51.146;17.120;2023-06-24T08:42:18;9.33;;;9.22;;
66371;SDS011;53168;51.146;17.120;2023-06-24T08:44:53;8.34;;;8.30;;
66371;SDS011;53168;51.146;17.120;2023-06-24T08:47:27;8.53;;;8.46;;
66371;SDS011;53168;51.146;17.120;2023-06-24T08:50:04;8.70;;;8.68;;
66371;SDS011;53168;51.146;17.120;2023-06-24T08:52:45;9.02;;;9.00;;
66371;SDS011;53168;51.146;17.120;2023-06-24T08:55:24;9.81;;;9.72;;
66371;SDS011;53168;51.146;17.120;2023-06-24T08:58:07;9.85;;;9.77;;
66371;SDS011;53168;51.146;17.120;2023-06-24T09:00:43;9.85;;;9.77;;
66371;SDS011;53168;51.146;17.120;2023-06-24T09:03:18;9.48;;;9.43;;
66371;SDS011;53168;51.146;17.120;2023-06-24T09:08:53;9.33;;;9.31;;
66371;SDS011;53168;51.146;17.120;2023-06-24T09:11:29;9.30;;;9.28;;
66371;SDS011;53168;51.146;17.120;2023-06-24T09:14:12;9.38;;;9.31;;
66371;SDS011;53168;51.146;17.120;2023-06-24T09:17:01;9.77;;;9.74;;
66371;SDS011;53168;51.146;17.120;2023-06-24T09:19:42;10.33;;;10.24;;
66371;SDS011;53168;51.146;17.120;2023-06-24T09:22:35;9.53;;;9.39;;
66371;SDS011;53168;51.146;17.120;2023-06-24T09:25:17;10.36;;;10.17;;
66371;SDS011;53168;51.146;17.120;2023-06-24T09:27:51;11.67;;;11.40;;
66371;SDS011;53168;51.146;17.120;2023-06-24T09:30:29;10.33;;;10.26;;
66371;SDS011;53168;51.146;17.120;2023-06-24T09:33:03;10.85;;;10.72;;
66371;SDS011;53168;51.146;17.120;2023-06-24T09:35:42;11.26;;;11.15;;
66371;SDS011;53168;51.146;17.120;2023-06-24T09:38:33;9.55;;;9.48;;
66371;SDS011;53168;51.146;17.120;2023-06-24T09:41:21;11.57;;;11.45;;
66371;SDS011;53168;51.146;17.120;2023-06-24T09:44:32;11.29;;;11.20;;
66371;SDS011;53168;51.146;17.120;2023-06-24T09:50:44;11.32;;;11.23;;
66371;SDS011;53168;51.146;17.120;2023-06-24T09:53:25;10.81;;;10.79;;
66371;SDS011;53168;51.146;17.120;2023-06-24T09:56:10;10.92;;;10.79;;
66371;SDS011;53168;51.146;17.120;2023-06-24T09:59:01;10.76;;;10.65;;
66371;SDS011;53168;51.146;17.120;2023-06-24T10:02:04;10.51;;;10.45;;
66371;SDS011;53168;51.146;17.120;2023-06-24T10:05:26;10.28;;;10.23;;
66371;SDS011;53168;51.146;17.120;2023-06-24T10:08:33;10.07;;;10.06;;
66371;SDS011;53168;51.146;17.120;2023-06-24T10:12:13;10.24;;;10.18;;
66371;SDS011;53168;51.146;17.120;2023-06-24T10:15:21;11.06;;;10.98;;
66371;SDS011;53168;51.146;17.120;2023-06-24T10:21:24;9.68;;;9.68;;
66371;SDS011;53168;51.146;17.120;2023-06-24T10:24:42;10.11;;;10.11;;
66371;SDS011;53168;51.146;17.120;2023-06-24T10:27:26;9.11;;;9.11;;
66371;SDS011;53168;51.146;17.120;2023-06-24T10:30:17;9.17;;;9.16;;
66371;SDS011;53168;51.146;17.120;2023-06-24T10:32:56;9.28;;;9.27;;
66371;SDS011;53168;51.146;17.120;2023-06-24T10:35:31;9.24;;;9.24;;
66371;SDS011;53168;51.146;17.120;2023-06-24T10:38:24;10.81;;;10.73;;
66371;SDS011;53168;51.146;17.120;2023-06-24T10:41:24;10.96;;;10.78;;
66371;SDS011;53168;51.146;17.120;2023-06-24T10:48:21;9.87;;;9.77;;
66371;SDS011;53168;51.146;17.120;2023-06-24T10:51:06;10.31;;;10.18;;
66371;SDS011;53168;51.146;17.120;2023-06-24T10:54:23;9.28;;;9.24;;
66371;SDS011;53168;51.146;17.120;2023-06-24T10:57:44;9.63;;;9.45;;
66371;SDS011;53168;51.146;17.120;2023-06-24T11:04:21;8.39;;;8.36;;
66371;SDS011;53168;51.146;17.120;2023-06-24T11:07:00;8.65;;;8.63;;
66371;SDS011;53168;51.146;17.120;2023-06-24T11:09:47;7.67;;;7.67;;
66371;SDS011;53168;51.146;17.120;2023-06-24T11:12:31;8.77;;;8.74;;
66371;SDS011;53168;51.146;17.120;2023-06-24T11:15:09;8.03;;;7.98;;
66371;SDS011;53168;51.146;17.120;2023-06-24T11:17:50;8.03;;;7.94;;
66371;SDS011;53168;51.146;17.120;2023-06-24T11:20:28;7.47;;;7.46;;
66371;SDS011;53168;51.146;17.120;2023-06-24T11:23:08;7.87;;;7.86;;
66371;SDS011;53168;51.146;17.120;2023-06-24T11:25:45;8.28;;;8.28;;
66371;SDS011;53168;51.146;17.120;2023-06-24T11:28:18;7.66;;;7.66;;
66371;SDS011;53168;51.146;17.120;2023-06-24T11:30:53;7.66;;;7.66;;
66371;SDS011;53168;51.146;17.120;2023-06-24T11:33:36;7.91;;;7.91;;
66371;SDS011;53168;51.146;17.120;2023-06-24T11:36:10;7.96;;;7.88;;
66371;SDS011;53168;51.146;17.120;2023-06-24T11:38:47;7.65;;;7.65;;
66371;SDS011;53168;51.146;17.120;2023-06-24T11:41:21;7.60;;;7.60;;
66371;SDS011;53168;51.146;17.120;2023-06-24T11:43:58;7.65;;;7.64;;
66371;SDS011;53168;51.146;17.120;2023-06-24T11:46:32;6.94;;;6.94;;
66371;SDS011;53168;51.146;17.120;2023-06-24T11:49:08;7.58;;;7.58;;
66371;SDS011;53168;51.146;17.120;2023-06-24T11:51:48;7.74;;;7.74;;
66371;SDS011;53168;51.146;17.120;2023-06-24T11:54:29;7.25;;;7.25;;
66371;SDS011;53168;51.146;17.120;2023-06-24T11:57:14;7.23;;;7.23;;
66371;SDS011;53168;51.146;17.120;2023-06-24T12:00:21;7.30;;;7.30;;
66371;SDS011;53168;51.146;17.120;2023-06-24T12:03:08;7.22;;;7.22;;
66371;SDS011;53168;51.146;17.120;2023-06-24T12:05:43;7.35;;;7.35;;
66371;SDS011;53168;51.146;17.120;2023-06-24T12:08:21;6.31;;;6.31;;
66371;SDS011;53168;51.146;17.120;2023-06-24T12:10:59;6.19;;;6.18;;
66371;SDS011;53168;51.146;17.120;2023-06-24T12:13:43;6.95;;;6.95;;
66371;SDS011;53168;51.146;17.120;2023-06-24T12:16:24;6.68;;;6.67;;
66371;SDS011;53168;51.146;17.120;2023-06-24T12:19:01;6.19;;;6.19;;
66371;SDS011;53168;51.146;17.120;2023-06-24T12:21:52;5.94;;;5.94;;
66371;SDS011;53168;51.146;17.120;2023-06-24T12:24:26;6.01;;;6.01;;
66371;SDS011;53168;51.146;17.120;2023-06-24T12:27:01;6.61;;;6.61;;
66371;SDS011;53168;51.146;17.120;2023-06-24T12:29:38;7.14;;;7.14;;
66371;SDS011;53168;51.146;17.120;2023-06-24T12:35:11;6.02;;;6.02;;
66371;SDS011;53168;51.146;17.120;2023-06-24T12:38:15;5.88;;;5.88;;
66371;SDS011;53168;51.146;17.120;2023-06-24T12:40:55;5.94;;;5.94;;
66371;SDS011;53168;51.146;17.120;2023-06-24T12:43:45;5.67;;;5.67;;
66371;SDS011;53168;51.146;17.120;2023-06-24T12:46:19;6.38;;;6.38;;
66371;SDS011;53168;51.146;17.120;2023-06-24T12:49:04;6.31;;;6.31;;
66371;SDS011;53168;51.146;17.120;2023-06-24T12:51:46;5.42;;;5.42;;
66371;SDS011;53168;51.146;17.120;2023-06-24T12:54:20;6.05;;;6.05;;
66371;SDS011;53168;51.146;17.120;2023-06-24T12:56:56;5.74;;;5.74;;
66371;SDS011;53168;51.146;17.120;2023-06-24T12:59:45;5.63;;;5.63;;
66371;SDS011;53168;51.146;17.120;2023-06-24T13:02:21;5.69;;;5.69;;
66371;SDS011;53168;51.146;17.120;2023-06-24T13:04:55;6.66;;;6.66;;
66371;SDS011;53168;51.146;17.120;2023-06-24T13:07:29;5.70;;;5.70;;
66371;SDS011;53168;51.146;17.120;2023-06-24T13:10:07;5.99;;;5.99;;
66371;SDS011;53168;51.146;17.120;2023-06-24T13:12:47;6.05;;;6.05;;
66371;SDS011;53168;51.146;17.120;2023-06-24T13:15:22;6.23;;;6.23;;
66371;SDS011;53168;51.146;17.120;2023-06-24T13:17:58;5.87;;;5.87;;
66371;SDS011;53168;51.146;17.120;2023-06-24T13:20:33;5.94;;;5.94;;
66371;SDS011;53168;51.146;17.120;2023-06-24T13:23:08;5.74;;;5.74;;
66371;SDS011;53168;51.146;17.120;2023-06-24T13:25:49;5.77;;;5.77;;
66371;SDS011;53168;51.146;17.120;2023-06-24T13:28:25;5.08;;;5.08;;
66371;SDS011;53168;51.146;17.120;2023-06-24T13:31:00;5.90;;;5.90;;
66371;SDS011;53168;51.146;17.120;2023-06-24T13:33:34;5.07;;;5.07;;
66371;SDS011;53168;51.146;17.120;2023-06-24T13:36:25;5.16;;;5.16;;
66371;SDS011;53168;51.146;17.120;2023-06-24T13:43:07;5.75;;;5.75;;
66371;SDS011;53168;51.146;17.120;2023-06-24T13:46:07;5.02;;;5.02;;
66371;SDS011;53168;51.146;17.120;2023-06-24T13:49:02;5.69;;;5.69;;
66371;SDS011;53168;51.146;17.120;2023-06-24T13:51:48;5.04;;;5.04;;
66371;SDS011;53168;51.146;17.120;2023-06-24T13:56:10;5.10;;;5.10;;
66371;SDS011;53168;51.146;17.120;2023-06-24T13:58:45;4.42;;;4.42;;
66371;SDS011;53168;51.146;17.120;2023-06-24T14:01:22;4.93;;;4.93;;
66371;SDS011;53168;51.146;17.120;2023-06-24T14:04:00;5.40;;;5.40;;
66371;SDS011;53168;51.146;17.120;2023-06-24T14:06:35;5.06;;;5.06;;
66371;SDS011;53168;51.146;17.120;2023-06-24T14:09:09;5.06;;;5.06;;
66371;SDS011;53168;51.146;17.120;2023-06-24T14:11:45;5.13;;;5.13;;
66371;SDS011;53168;51.146;17.120;2023-06-24T14:14:44;5.32;;;5.32;;
66371;SDS011;53168;51.146;17.120;2023-06-24T14:17:18;5.68;;;5.68;;
66371;SDS011;53168;51.146;17.120;2023-06-24T14:19:52;5.23;;;5.23;;
66371;SDS011;53168;51.146;17.120;2023-06-24T14:22:27;5.30;;;5.30;;
66371;SDS011;53168;51.146;17.120;2023-06-24T14:25:00;5.24;;;5.24;;
66371;SDS011;53168;51.146;17.120;2023-06-24T14:27:35;5.39;;;5.39;;
66371;SDS011;53168;51.146;17.120;2023-06-24T14:30:10;5.61;;;5.61;;
66371;SDS011;53168;51.146;17.120;2023-06-24T14:32:49;5.19;;;5.19;;
66371;SDS011;53168;51.146;17.120;2023-06-24T14:35:26;5.00;;;5.00;;
66371;SDS011;53168;51.146;17.120;2023-06-24T14:38:13;5.86;;;5.86;;
66371;SDS011;53168;51.146;17.120;2023-06-24T14:40:52;5.70;;;5.70;;
66371;SDS011;53168;51.146;17.120;2023-06-24T14:43:26;5.46;;;5.46;;
66371;SDS011;53168;51.146;17.120;2023-06-24T14:46:00;5.25;;;5.25;;
66371;SDS011;53168;51.146;17.120;2023-06-24T14:48:37;5.39;;;5.39;;
66371;SDS011;53168;51.146;17.120;2023-06-24T14:51:18;6.19;;;6.19;;
66371;SDS011;53168;51.146;17.120;2023-06-24T14:53:56;6.11;;;6.11;;
66371;SDS011;53168;51.146;17.120;2023-06-24T14:56:33;5.95;;;5.95;;
66371;SDS011;53168;51.146;17.120;2023-06-24T14:59:19;5.67;;;5.67;;
66371;SDS011;53168;51.146;17.120;2023-06-24T15:01:55;5.51;;;5.51;;
66371;SDS011;53168;51.146;17.120;2023-06-24T15:04:40;5.88;;;5.88;;
66371;SDS011;53168;51.146;17.120;2023-06-24T15:07:19;5.73;;;5.73;;
66371;SDS011;53168;51.146;17.120;2023-06-24T15:09:58;5.57;;;5.57;;
66371;SDS011;53168;51.146;17.120;2023-06-24T15:12:35;5.17;;;5.17;;
66371;SDS011;53168;51.146;17.120;2023-06-24T15:15:17;5.82;;;5.82;;
66371;SDS011;53168;51.146;17.120;2023-06-24T15:17:52;4.62;;;4.62;;
66371;SDS011;53168;51.146;17.120;2023-06-24T15:20:29;5.41;;;5.41;;
66371;SDS011;53168;51.146;17.120;2023-06-24T15:23:04;5.82;;;5.82;;
66371;SDS011;53168;51.146;17.120;2023-06-24T15:25:38;5.41;;;5.41;;
66371;SDS011;53168;51.146;17.120;2023-06-24T15:28:12;5.85;;;5.85;;
66371;SDS011;53168;51.146;17.120;2023-06-24T15:30:49;5.74;;;5.74;;
66371;SDS011;53168;51.146;17.120;2023-06-24T15:33:27;5.70;;;5.70;;
66371;SDS011;53168;51.146;17.120;2023-06-24T15:36:14;6.45;;;6.45;;
66371;SDS011;53168;51.146;17.120;2023-06-24T15:38:51;5.69;;;5.69;;
66371;SDS011;53168;51.146;17.120;2023-06-24T15:44:31;5.81;;;5.81;;
66371;SDS011;53168;51.146;17.120;2023-06-24T15:47:16;6.37;;;6.37;;
66371;SDS011;53168;51.146;17.120;2023-06-24T15:53:12;5.70;;;5.70;;
66371;SDS011;53168;51.146;17.120;2023-06-24T15:59:53;5.77;;;5.77;;
66371;SDS011;53168;51.146;17.120;2023-06-24T16:04:01;5.73;;;5.73;;
66371;SDS011;53168;51.146;17.120;2023-06-24T16:07:30;5.82;;;5.82;;
66371;SDS011;53168;51.146;17.120;2023-06-24T16:18:44;6.08;;;6.08;;
66371;SDS011;53168;51.146;17.120;2023-06-24T16:21:55;6.24;;;6.24;;
66371;SDS011;53168;51.146;17.120;2023-06-24T16:25:10;5.85;;;5.85;;
66371;SDS011;53168;51.146;17.120;2023-06-24T16:28:56;6.11;;;6.11;;
66371;SDS011;53168;51.146;17.120;2023-06-24T16:39:45;5.94;;;5.94;;
66371;SDS011;53168;51.146;17.120;2023-06-24T16:42:53;6.02;;;6.02;;
66371;SDS011;53168;51.146;17.120;2023-06-24T17:15:13;6.48;;;6.48;;
66371;SDS011;53168;51.146;17.120;2023-06-24T17:18:24;7.17;;;7.17;;
66371;SDS011;53168;51.146;17.120;2023-06-24T17:24:52;7.28;;;7.28;;
66371;SDS011;53168;51.146;17.120;2023-06-24T17:27:31;6.75;;;6.75;;